sensor_id;sensor_type;location;lat;lon;timestamp;P1;durP1;ratioP1;P2;durP2;ratioP2
66179;SDS011;52986;44.028;20.466;2023-04-24T00:00:53;33.22;;;15.73;;
66179;SDS011;52986;44.028;20.466;2023-04-24T00:03:21;32.55;;;14.85;;
66179;SDS011;52986;44.028;20.466;2023-04-24T00:05:51;29.08;;;13.73;;
66179;SDS011;52986;44.028;20.466;2023-04-24T00:08:17;28.25;;;13.52;;
66179;SDS011;52986;44.028;20.466;2023-04-24T00:10:43;24.92;;;12.10;;
66179;SDS011;52986;44.028;20.466;2023-04-24T00:13:08;22.90;;;11.73;;
66179;SDS011;52986;44.028;20.466;2023-04-24T00:15:34;31.25;;;14.07;;
66179;SDS011;52986;44.028;20.466;2023-04-24T00:17:59;29.40;;;13.73;;
66179;SDS011;52986;44.028;20.466;2023-04-24T00:20:26;30.90;;;14.38;;
66179;SDS011;52986;44.028;20.466;2023-04-24T00:22:53;29.67;;;14.75;;
66179;SDS011;52986;44.028;20.466;2023-04-24T00:25:18;31.25;;;15.32;;
66179;SDS011;52986;44.028;20.466;2023-04-24T00:27:44;29.98;;;14.75;;
66179;SDS011;52986;44.028;20.466;2023-04-24T00:30:09;30.73;;;14.52;;
66179;SDS011;52986;44.028;20.466;2023-04-24T00:32:35;32.05;;;14.88;;
66179;SDS011;52986;44.028;20.466;2023-04-24T00:35:00;29.10;;;13.93;;
66179;SDS011;52986;44.028;20.466;2023-04-24T00:37:26;25.70;;;12.82;;
66179;SDS011;52986;44.028;20.466;2023-04-24T00:39:51;25.60;;;12.32;;
66179;SDS011;52986;44.028;20.466;2023-04-24T00:42:16;23.85;;;11.65;;
66179;SDS011;52986;44.028;20.466;2023-04-24T00:44:42;24.70;;;11.25;;
66179;SDS011;52986;44.028;20.466;2023-04-24T00:47:07;25.77;;;11.68;;
66179;SDS011;52986;44.028;20.466;2023-04-24T00:49:33;22.80;;;10.98;;
66179;SDS011;52986;44.028;20.466;2023-04-24T00:51:58;22.63;;;11.43;;
66179;SDS011;52986;44.028;20.466;2023-04-24T00:54:24;24.52;;;11.88;;
66179;SDS011;52986;44.028;20.466;2023-04-24T00:56:50;25.00;;;11.82;;
66179;SDS011;52986;44.028;20.466;2023-04-24T00:59:16;23.98;;;12.07;;
66179;SDS011;52986;44.028;20.466;2023-04-24T01:01:43;23.13;;;11.57;;
66179;SDS011;52986;44.028;20.466;2023-04-24T01:04:11;27.92;;;12.02;;
66179;SDS011;52986;44.028;20.466;2023-04-24T01:06:38;21.95;;;11.52;;
66179;SDS011;52986;44.028;20.466;2023-04-24T01:09:05;22.98;;;11.07;;
66179;SDS011;52986;44.028;20.466;2023-04-24T01:11:32;23.17;;;11.55;;
66179;SDS011;52986;44.028;20.466;2023-04-24T01:13:58;23.25;;;10.73;;
66179;SDS011;52986;44.028;20.466;2023-04-24T01:16:24;22.55;;;11.10;;
66179;SDS011;52986;44.028;20.466;2023-04-24T01:18:49;22.05;;;11.52;;
66179;SDS011;52986;44.028;20.466;2023-04-24T01:21:15;23.42;;;10.85;;
66179;SDS011;52986;44.028;20.466;2023-04-24T01:23:44;23.25;;;11.32;;
66179;SDS011;52986;44.028;20.466;2023-04-24T01:26:10;22.33;;;11.43;;
66179;SDS011;52986;44.028;20.466;2023-04-24T01:28:35;24.65;;;12.10;;
66179;SDS011;52986;44.028;20.466;2023-04-24T01:31:02;24.73;;;12.00;;
66179;SDS011;52986;44.028;20.466;2023-04-24T01:33:27;24.20;;;11.77;;
66179;SDS011;52986;44.028;20.466;2023-04-24T01:35:53;22.92;;;11.73;;
66179;SDS011;52986;44.028;20.466;2023-04-24T01:38:19;24.65;;;12.40;;
66179;SDS011;52986;44.028;20.466;2023-04-24T01:40:44;25.10;;;11.85;;
66179;SDS011;52986;44.028;20.466;2023-04-24T01:43:10;22.88;;;11.43;;
66179;SDS011;52986;44.028;20.466;2023-04-24T01:45:36;24.83;;;12.00;;
66179;SDS011;52986;44.028;20.466;2023-04-24T01:48:01;25.88;;;12.48;;
66179;SDS011;52986;44.028;20.466;2023-04-24T01:50:27;22.33;;;11.20;;
66179;SDS011;52986;44.028;20.466;2023-04-24T01:52:52;22.60;;;11.35;;
66179;SDS011;52986;44.028;20.466;2023-04-24T01:55:18;22.15;;;10.73;;
66179;SDS011;52986;44.028;20.466;2023-04-24T01:57:43;17.23;;;8.13;;
66179;SDS011;52986;44.028;20.466;2023-04-24T02:00:09;16.90;;;8.13;;
66179;SDS011;52986;44.028;20.466;2023-04-24T02:02:36;17.08;;;8.13;;
66179;SDS011;52986;44.028;20.466;2023-04-24T02:05:02;18.30;;;8.82;;
66179;SDS011;52986;44.028;20.466;2023-04-24T02:07:27;17.10;;;8.82;;
66179;SDS011;52986;44.028;20.466;2023-04-24T02:09:53;19.15;;;9.68;;
66179;SDS011;52986;44.028;20.466;2023-04-24T02:12:19;20.55;;;10.35;;
66179;SDS011;52986;44.028;20.466;2023-04-24T02:14:44;21.30;;;10.80;;
66179;SDS011;52986;44.028;20.466;2023-04-24T02:17:09;21.88;;;9.57;;
66179;SDS011;52986;44.028;20.466;2023-04-24T02:19:38;20.83;;;9.90;;
66179;SDS011;52986;44.028;20.466;2023-04-24T02:22:05;19.52;;;9.45;;
66179;SDS011;52986;44.028;20.466;2023-04-24T02:24:30;19.50;;;9.43;;
66179;SDS011;52986;44.028;20.466;2023-04-24T02:26:56;19.92;;;9.60;;
66179;SDS011;52986;44.028;20.466;2023-04-24T02:29:22;18.10;;;9.38;;
66179;SDS011;52986;44.028;20.466;2023-04-24T02:31:48;20.40;;;9.93;;
66179;SDS011;52986;44.028;20.466;2023-04-24T02:34:13;17.83;;;8.82;;
66179;SDS011;52986;44.028;20.466;2023-04-24T02:36:39;19.08;;;9.50;;
66179;SDS011;52986;44.028;20.466;2023-04-24T02:39:04;18.13;;;9.45;;
66179;SDS011;52986;44.028;20.466;2023-04-24T02:41:30;21.00;;;9.95;;
66179;SDS011;52986;44.028;20.466;2023-04-24T02:44:00;19.98;;;10.68;;
66179;SDS011;52986;44.028;20.466;2023-04-24T02:46:26;19.98;;;9.65;;
66179;SDS011;52986;44.028;20.466;2023-04-24T02:48:51;20.52;;;10.18;;
66179;SDS011;52986;44.028;20.466;2023-04-24T02:51:17;19.67;;;10.52;;
66179;SDS011;52986;44.028;20.466;2023-04-24T02:53:42;20.40;;;10.68;;
66179;SDS011;52986;44.028;20.466;2023-04-24T02:56:07;20.95;;;10.82;;
66179;SDS011;52986;44.028;20.466;2023-04-24T02:58:33;19.90;;;10.27;;
66179;SDS011;52986;44.028;20.466;2023-04-24T03:00:59;20.05;;;9.70;;
66179;SDS011;52986;44.028;20.466;2023-04-24T03:03:25;20.83;;;10.10;;
66179;SDS011;52986;44.028;20.466;2023-04-24T03:05:50;22.45;;;10.38;;
66179;SDS011;52986;44.028;20.466;2023-04-24T03:08:16;18.13;;;9.10;;
66179;SDS011;52986;44.028;20.466;2023-04-24T03:10:41;20.40;;;9.57;;
66179;SDS011;52986;44.028;20.466;2023-04-24T03:13:06;20.63;;;9.70;;
66179;SDS011;52986;44.028;20.466;2023-04-24T03:15:32;20.25;;;9.07;;
66179;SDS011;52986;44.028;20.466;2023-04-24T03:17:57;22.15;;;10.63;;
66179;SDS011;52986;44.028;20.466;2023-04-24T03:20:23;20.65;;;10.15;;
66179;SDS011;52986;44.028;20.466;2023-04-24T03:22:48;22.27;;;10.63;;
66179;SDS011;52986;44.028;20.466;2023-04-24T03:25:14;23.75;;;11.93;;
66179;SDS011;52986;44.028;20.466;2023-04-24T03:27:39;22.55;;;10.98;;
66179;SDS011;52986;44.028;20.466;2023-04-24T03:30:06;23.40;;;11.45;;
66179;SDS011;52986;44.028;20.466;2023-04-24T03:32:32;24.52;;;11.10;;
66179;SDS011;52986;44.028;20.466;2023-04-24T03:34:57;21.20;;;10.73;;
66179;SDS011;52986;44.028;20.466;2023-04-24T03:37:22;17.25;;;9.40;;
66179;SDS011;52986;44.028;20.466;2023-04-24T03:39:48;21.30;;;9.45;;
66179;SDS011;52986;44.028;20.466;2023-04-24T03:42:13;21.95;;;10.20;;
66179;SDS011;52986;44.028;20.466;2023-04-24T03:44:38;21.45;;;10.30;;
66179;SDS011;52986;44.028;20.466;2023-04-24T03:47:04;21.73;;;9.02;;
66179;SDS011;52986;44.028;20.466;2023-04-24T03:49:29;21.35;;;8.80;;
66179;SDS011;52986;44.028;20.466;2023-04-24T03:51:55;18.65;;;8.10;;
66179;SDS011;52986;44.028;20.466;2023-04-24T03:54:20;18.98;;;8.75;;
66179;SDS011;52986;44.028;20.466;2023-04-24T03:56:45;20.13;;;8.95;;
66179;SDS011;52986;44.028;20.466;2023-04-24T03:59:11;21.98;;;8.93;;
66179;SDS011;52986;44.028;20.466;2023-04-24T04:01:36;22.55;;;9.93;;
66179;SDS011;52986;44.028;20.466;2023-04-24T04:04:05;59.90;;;29.85;;
66179;SDS011;52986;44.028;20.466;2023-04-24T04:06:31;25.48;;;10.60;;
66179;SDS011;52986;44.028;20.466;2023-04-24T04:08:57;17.75;;;8.90;;
66179;SDS011;52986;44.028;20.466;2023-04-24T04:11:23;21.38;;;9.00;;
66179;SDS011;52986;44.028;20.466;2023-04-24T04:13:49;21.63;;;9.18;;
66179;SDS011;52986;44.028;20.466;2023-04-24T04:16:15;19.50;;;8.82;;
66179;SDS011;52986;44.028;20.466;2023-04-24T04:18:43;24.65;;;9.02;;
66179;SDS011;52986;44.028;20.466;2023-04-24T04:21:09;23.05;;;10.75;;
66179;SDS011;52986;44.028;20.466;2023-04-24T04:23:44;23.75;;;9.75;;
66179;SDS011;52986;44.028;20.466;2023-04-24T04:26:16;24.52;;;8.88;;
66179;SDS011;52986;44.028;20.466;2023-04-24T04:28:41;21.13;;;9.20;;
66179;SDS011;52986;44.028;20.466;2023-04-24T04:31:07;20.73;;;8.77;;
66179;SDS011;52986;44.028;20.466;2023-04-24T04:33:33;19.40;;;9.60;;
66179;SDS011;52986;44.028;20.466;2023-04-24T04:35:58;18.80;;;8.77;;
66179;SDS011;52986;44.028;20.466;2023-04-24T04:38:25;18.98;;;8.27;;
66179;SDS011;52986;44.028;20.466;2023-04-24T04:40:51;23.85;;;9.57;;
66179;SDS011;52986;44.028;20.466;2023-04-24T04:43:17;25.33;;;10.10;;
66179;SDS011;52986;44.028;20.466;2023-04-24T04:45:42;23.40;;;9.13;;
66179;SDS011;52986;44.028;20.466;2023-04-24T04:48:10;21.55;;;9.85;;
66179;SDS011;52986;44.028;20.466;2023-04-24T04:50:38;23.20;;;10.50;;
66179;SDS011;52986;44.028;20.466;2023-04-24T04:53:04;23.25;;;10.13;;
66179;SDS011;52986;44.028;20.466;2023-04-24T04:55:30;23.55;;;10.10;;
66179;SDS011;52986;44.028;20.466;2023-04-24T04:57:55;22.00;;;9.32;;
66179;SDS011;52986;44.028;20.466;2023-04-24T05:00:21;21.85;;;9.45;;
66179;SDS011;52986;44.028;20.466;2023-04-24T05:02:50;23.35;;;9.73;;
66179;SDS011;52986;44.028;20.466;2023-04-24T05:05:16;28.45;;;10.32;;
66179;SDS011;52986;44.028;20.466;2023-04-24T05:07:42;23.10;;;9.55;;
66179;SDS011;52986;44.028;20.466;2023-04-24T05:10:08;19.70;;;10.27;;
66179;SDS011;52986;44.028;20.466;2023-04-24T05:12:34;25.10;;;10.07;;
66179;SDS011;52986;44.028;20.466;2023-04-24T05:14:59;24.65;;;11.13;;
66179;SDS011;52986;44.028;20.466;2023-04-24T05:17:25;27.13;;;10.30;;
66179;SDS011;52986;44.028;20.466;2023-04-24T05:19:50;27.67;;;12.30;;
66179;SDS011;52986;44.028;20.466;2023-04-24T05:22:16;23.92;;;11.23;;
66179;SDS011;52986;44.028;20.466;2023-04-24T05:24:43;26.50;;;10.55;;
66179;SDS011;52986;44.028;20.466;2023-04-24T05:27:08;22.20;;;10.65;;
66179;SDS011;52986;44.028;20.466;2023-04-24T05:29:34;27.38;;;10.90;;
66179;SDS011;52986;44.028;20.466;2023-04-24T05:32:00;26.00;;;11.02;;
66179;SDS011;52986;44.028;20.466;2023-04-24T05:34:25;26.15;;;9.90;;
66179;SDS011;52986;44.028;20.466;2023-04-24T05:36:51;19.77;;;9.02;;
66179;SDS011;52986;44.028;20.466;2023-04-24T05:39:17;23.55;;;9.35;;
66179;SDS011;52986;44.028;20.466;2023-04-24T05:41:43;20.42;;;9.43;;
66179;SDS011;52986;44.028;20.466;2023-04-24T05:44:08;19.35;;;10.43;;
66179;SDS011;52986;44.028;20.466;2023-04-24T05:46:34;20.48;;;9.82;;
66179;SDS011;52986;44.028;20.466;2023-04-24T05:48:59;21.90;;;9.77;;
66179;SDS011;52986;44.028;20.466;2023-04-24T05:51:25;20.65;;;9.48;;
66179;SDS011;52986;44.028;20.466;2023-04-24T05:53:51;23.70;;;12.60;;
66179;SDS011;52986;44.028;20.466;2023-04-24T05:56:16;19.25;;;8.63;;
66179;SDS011;52986;44.028;20.466;2023-04-24T05:58:42;21.67;;;8.27;;
66179;SDS011;52986;44.028;20.466;2023-04-24T06:01:07;18.98;;;8.73;;
66179;SDS011;52986;44.028;20.466;2023-04-24T06:03:33;21.70;;;9.15;;
66179;SDS011;52986;44.028;20.466;2023-04-24T06:05:58;19.97;;;8.63;;
66179;SDS011;52986;44.028;20.466;2023-04-24T06:08:24;17.52;;;8.43;;
66179;SDS011;52986;44.028;20.466;2023-04-24T06:10:49;17.08;;;8.23;;
66179;SDS011;52986;44.028;20.466;2023-04-24T06:13:14;15.40;;;7.38;;
66179;SDS011;52986;44.028;20.466;2023-04-24T06:15:40;17.20;;;8.27;;
66179;SDS011;52986;44.028;20.466;2023-04-24T06:18:06;16.15;;;8.27;;
66179;SDS011;52986;44.028;20.466;2023-04-24T06:20:31;17.92;;;8.57;;
66179;SDS011;52986;44.028;20.466;2023-04-24T06:22:57;17.98;;;9.18;;
66179;SDS011;52986;44.028;20.466;2023-04-24T06:25:24;22.60;;;9.52;;
66179;SDS011;52986;44.028;20.466;2023-04-24T06:27:51;19.85;;;9.65;;
66179;SDS011;52986;44.028;20.466;2023-04-24T06:30:17;19.45;;;8.90;;
66179;SDS011;52986;44.028;20.466;2023-04-24T06:32:42;23.33;;;9.27;;
66179;SDS011;52986;44.028;20.466;2023-04-24T06:35:07;19.20;;;8.18;;
66179;SDS011;52986;44.028;20.466;2023-04-24T06:37:34;16.80;;;7.40;;
66179;SDS011;52986;44.028;20.466;2023-04-24T06:40:00;16.95;;;7.43;;
66179;SDS011;52986;44.028;20.466;2023-04-24T06:42:25;17.23;;;7.93;;
66179;SDS011;52986;44.028;20.466;2023-04-24T06:44:51;15.88;;;7.65;;
66179;SDS011;52986;44.028;20.466;2023-04-24T06:47:16;14.13;;;7.00;;
66179;SDS011;52986;44.028;20.466;2023-04-24T06:49:42;13.77;;;6.57;;
66179;SDS011;52986;44.028;20.466;2023-04-24T06:52:07;9.48;;;4.05;;
66179;SDS011;52986;44.028;20.466;2023-04-24T06:54:33;11.40;;;4.32;;
66179;SDS011;52986;44.028;20.466;2023-04-24T06:57:00;11.95;;;4.40;;
66179;SDS011;52986;44.028;20.466;2023-04-24T06:59:27;9.50;;;4.30;;
66179;SDS011;52986;44.028;20.466;2023-04-24T07:01:53;9.10;;;4.18;;
66179;SDS011;52986;44.028;20.466;2023-04-24T07:04:20;12.32;;;4.25;;
66179;SDS011;52986;44.028;20.466;2023-04-24T07:06:45;12.68;;;4.40;;
66179;SDS011;52986;44.028;20.466;2023-04-24T07:09:14;9.85;;;4.25;;
66179;SDS011;52986;44.028;20.466;2023-04-24T07:11:40;12.55;;;4.47;;
66179;SDS011;52986;44.028;20.466;2023-04-24T07:14:06;12.02;;;4.65;;
66179;SDS011;52986;44.028;20.466;2023-04-24T07:16:32;10.32;;;4.35;;
66179;SDS011;52986;44.028;20.466;2023-04-24T07:18:58;9.93;;;4.40;;
66179;SDS011;52986;44.028;20.466;2023-04-24T07:21:23;12.25;;;4.75;;
66179;SDS011;52986;44.028;20.466;2023-04-24T07:23:48;12.45;;;4.40;;
66179;SDS011;52986;44.028;20.466;2023-04-24T07:26:14;11.55;;;4.40;;
66179;SDS011;52986;44.028;20.466;2023-04-24T07:28:40;13.70;;;4.43;;
66179;SDS011;52986;44.028;20.466;2023-04-24T07:31:06;9.50;;;4.22;;
66179;SDS011;52986;44.028;20.466;2023-04-24T07:33:31;10.55;;;4.40;;
66179;SDS011;52986;44.028;20.466;2023-04-24T07:35:57;11.38;;;4.40;;
66179;SDS011;52986;44.028;20.466;2023-04-24T07:38:23;10.95;;;4.10;;
66179;SDS011;52986;44.028;20.466;2023-04-24T07:40:50;9.70;;;4.20;;
66179;SDS011;52986;44.028;20.466;2023-04-24T07:43:16;11.18;;;4.07;;
66179;SDS011;52986;44.028;20.466;2023-04-24T07:45:42;10.80;;;4.60;;
66179;SDS011;52986;44.028;20.466;2023-04-24T07:48:08;12.07;;;3.95;;
66179;SDS011;52986;44.028;20.466;2023-04-24T07:50:34;10.23;;;4.35;;
66179;SDS011;52986;44.028;20.466;2023-04-24T07:52:59;10.07;;;4.07;;
66179;SDS011;52986;44.028;20.466;2023-04-24T07:55:25;9.85;;;4.07;;
66179;SDS011;52986;44.028;20.466;2023-04-24T07:57:50;12.70;;;4.88;;
66179;SDS011;52986;44.028;20.466;2023-04-24T08:00:16;11.95;;;4.57;;
66179;SDS011;52986;44.028;20.466;2023-04-24T08:02:42;9.65;;;4.10;;
66179;SDS011;52986;44.028;20.466;2023-04-24T08:05:07;8.77;;;4.07;;
66179;SDS011;52986;44.028;20.466;2023-04-24T08:07:33;9.70;;;4.22;;
66179;SDS011;52986;44.028;20.466;2023-04-24T08:10:00;9.80;;;3.95;;
66179;SDS011;52986;44.028;20.466;2023-04-24T08:12:25;12.73;;;4.22;;
66179;SDS011;52986;44.028;20.466;2023-04-24T08:14:51;9.25;;;3.90;;
66179;SDS011;52986;44.028;20.466;2023-04-24T08:17:17;11.73;;;4.03;;
66179;SDS011;52986;44.028;20.466;2023-04-24T08:19:42;11.85;;;4.38;;
66179;SDS011;52986;44.028;20.466;2023-04-24T08:22:12;9.00;;;4.15;;
66179;SDS011;52986;44.028;20.466;2023-04-24T08:24:38;9.60;;;4.22;;
66179;SDS011;52986;44.028;20.466;2023-04-24T08:27:03;9.85;;;4.10;;
66179;SDS011;52986;44.028;20.466;2023-04-24T08:29:28;11.30;;;3.83;;
66179;SDS011;52986;44.028;20.466;2023-04-24T08:31:54;8.43;;;3.65;;
66179;SDS011;52986;44.028;20.466;2023-04-24T08:34:20;9.23;;;4.00;;
66179;SDS011;52986;44.028;20.466;2023-04-24T08:36:46;10.18;;;4.20;;
66179;SDS011;52986;44.028;20.466;2023-04-24T08:39:11;9.55;;;4.00;;
66179;SDS011;52986;44.028;20.466;2023-04-24T08:41:37;10.10;;;4.20;;
66179;SDS011;52986;44.028;20.466;2023-04-24T08:44:03;9.70;;;3.83;;
66179;SDS011;52986;44.028;20.466;2023-04-24T08:46:29;9.13;;;3.78;;
66179;SDS011;52986;44.028;20.466;2023-04-24T08:48:55;12.23;;;4.40;;
66179;SDS011;52986;44.028;20.466;2023-04-24T08:51:21;11.85;;;4.28;;
66179;SDS011;52986;44.028;20.466;2023-04-24T08:53:47;11.18;;;4.00;;
66179;SDS011;52986;44.028;20.466;2023-04-24T08:56:13;9.25;;;4.07;;
66179;SDS011;52986;44.028;20.466;2023-04-24T08:58:39;13.27;;;4.38;;
66179;SDS011;52986;44.028;20.466;2023-04-24T09:01:05;11.10;;;4.03;;
66179;SDS011;52986;44.028;20.466;2023-04-24T09:03:32;9.88;;;3.80;;
66179;SDS011;52986;44.028;20.466;2023-04-24T09:05:58;13.25;;;4.28;;
66179;SDS011;52986;44.028;20.466;2023-04-24T09:08:25;11.80;;;4.05;;
66179;SDS011;52986;44.028;20.466;2023-04-24T09:10:52;13.75;;;4.18;;
66179;SDS011;52986;44.028;20.466;2023-04-24T09:13:18;12.45;;;3.80;;
66179;SDS011;52986;44.028;20.466;2023-04-24T09:15:45;10.10;;;4.05;;
66179;SDS011;52986;44.028;20.466;2023-04-24T09:18:10;8.52;;;3.85;;
66179;SDS011;52986;44.028;20.466;2023-04-24T09:20:56;8.55;;;3.97;;
66179;SDS011;52986;44.028;20.466;2023-04-24T09:23:26;9.52;;;4.05;;
66179;SDS011;52986;44.028;20.466;2023-04-24T09:25:55;9.10;;;4.30;;
66179;SDS011;52986;44.028;20.466;2023-04-24T09:28:25;11.35;;;4.53;;
66179;SDS011;52986;44.028;20.466;2023-04-24T09:31:02;10.40;;;3.85;;
66179;SDS011;52986;44.028;20.466;2023-04-24T09:33:35;11.55;;;4.53;;
66179;SDS011;52986;44.028;20.466;2023-04-24T09:36:01;9.57;;;4.03;;
66179;SDS011;52986;44.028;20.466;2023-04-24T09:38:37;8.50;;;3.95;;
66179;SDS011;52986;44.028;20.466;2023-04-24T09:41:04;10.88;;;4.72;;
66179;SDS011;52986;44.028;20.466;2023-04-24T09:43:33;8.95;;;4.03;;
66179;SDS011;52986;44.028;20.466;2023-04-24T09:46:00;10.27;;;3.75;;
66179;SDS011;52986;44.028;20.466;2023-04-24T09:48:30;11.95;;;3.90;;
66179;SDS011;52986;44.028;20.466;2023-04-24T09:50:57;9.23;;;3.80;;
66179;SDS011;52986;44.028;20.466;2023-04-24T09:53:25;7.82;;;3.75;;
66179;SDS011;52986;44.028;20.466;2023-04-24T09:55:51;11.15;;;4.30;;
66179;SDS011;52986;44.028;20.466;2023-04-24T09:58:18;10.70;;;3.78;;
66179;SDS011;52986;44.028;20.466;2023-04-24T10:00:49;8.10;;;3.58;;
66179;SDS011;52986;44.028;20.466;2023-04-24T10:03:15;9.07;;;4.03;;
66179;SDS011;52986;44.028;20.466;2023-04-24T10:05:42;11.63;;;4.15;;
66179;SDS011;52986;44.028;20.466;2023-04-24T10:08:12;9.15;;;4.10;;
66179;SDS011;52986;44.028;20.466;2023-04-24T10:10:42;9.50;;;3.78;;
66179;SDS011;52986;44.028;20.466;2023-04-24T10:13:12;8.52;;;3.70;;
66179;SDS011;52986;44.028;20.466;2023-04-24T10:15:40;9.32;;;3.80;;
66179;SDS011;52986;44.028;20.466;2023-04-24T10:18:06;8.25;;;3.50;;
66179;SDS011;52986;44.028;20.466;2023-04-24T10:20:33;11.07;;;3.70;;
66179;SDS011;52986;44.028;20.466;2023-04-24T10:23:01;12.07;;;4.20;;
66179;SDS011;52986;44.028;20.466;2023-04-24T10:25:27;9.77;;;3.80;;
66179;SDS011;52986;44.028;20.466;2023-04-24T10:27:57;11.82;;;3.53;;
66179;SDS011;52986;44.028;20.466;2023-04-24T10:30:25;8.45;;;3.40;;
66179;SDS011;52986;44.028;20.466;2023-04-24T10:32:52;8.48;;;3.17;;
66179;SDS011;52986;44.028;20.466;2023-04-24T10:35:17;7.68;;;3.10;;
66179;SDS011;52986;44.028;20.466;2023-04-24T10:37:49;8.30;;;3.30;;
66179;SDS011;52986;44.028;20.466;2023-04-24T10:40:19;9.40;;;3.50;;
66179;SDS011;52986;44.028;20.466;2023-04-24T10:42:51;7.57;;;3.35;;
66179;SDS011;52986;44.028;20.466;2023-04-24T10:45:19;9.82;;;3.22;;
66179;SDS011;52986;44.028;20.466;2023-04-24T10:47:56;11.70;;;3.55;;
66179;SDS011;52986;44.028;20.466;2023-04-24T10:50:25;15.15;;;3.92;;
66179;SDS011;52986;44.028;20.466;2023-04-24T10:52:52;11.20;;;3.67;;
66179;SDS011;52986;44.028;20.466;2023-04-24T10:58:51;10.52;;;3.00;;
66179;SDS011;52986;44.028;20.466;2023-04-24T11:01:31;8.68;;;3.25;;
66179;SDS011;52986;44.028;20.466;2023-04-24T11:03:58;9.07;;;3.25;;
66179;SDS011;52986;44.028;20.466;2023-04-24T11:06:43;10.07;;;3.30;;
66179;SDS011;52986;44.028;20.466;2023-04-24T11:09:09;8.27;;;3.40;;
66179;SDS011;52986;44.028;20.466;2023-04-24T11:11:37;9.23;;;3.22;;
66179;SDS011;52986;44.028;20.466;2023-04-24T11:14:09;10.77;;;2.95;;
66179;SDS011;52986;44.028;20.466;2023-04-24T11:16:36;9.60;;;3.08;;
66179;SDS011;52986;44.028;20.466;2023-04-24T11:19:38;9.88;;;2.95;;
66179;SDS011;52986;44.028;20.466;2023-04-24T11:22:02;7.25;;;2.70;;
66179;SDS011;52986;44.028;20.466;2023-04-24T11:35:06;11.18;;;4.60;;
66179;SDS011;52986;44.028;20.466;2023-04-24T11:37:49;11.98;;;4.70;;
66179;SDS011;52986;44.028;20.466;2023-04-24T11:40:17;11.57;;;4.93;;
66179;SDS011;52986;44.028;20.466;2023-04-24T11:42:51;12.10;;;6.22;;
66179;SDS011;52986;44.028;20.466;2023-04-24T11:45:24;11.00;;;5.25;;
66179;SDS011;52986;44.028;20.466;2023-04-24T11:47:52;12.82;;;5.70;;
66179;SDS011;52986;44.028;20.466;2023-04-24T11:50:19;18.20;;;6.95;;
66179;SDS011;52986;44.028;20.466;2023-04-24T11:52:47;15.25;;;6.32;;
66179;SDS011;52986;44.028;20.466;2023-04-24T12:00:18;9.50;;;4.38;;
66179;SDS011;52986;44.028;20.466;2023-04-24T12:02:45;11.43;;;4.90;;
66179;SDS011;52986;44.028;20.466;2023-04-24T12:05:24;12.80;;;5.47;;
66179;SDS011;52986;44.028;20.466;2023-04-24T12:07:51;11.55;;;4.93;;
66179;SDS011;52986;44.028;20.466;2023-04-24T12:10:21;11.50;;;4.85;;
66179;SDS011;52986;44.028;20.466;2023-04-24T12:12:47;11.52;;;5.03;;
66179;SDS011;52986;44.028;20.466;2023-04-24T12:15:15;10.70;;;4.82;;
66179;SDS011;52986;44.028;20.466;2023-04-24T12:17:41;10.82;;;4.72;;
66179;SDS011;52986;44.028;20.466;2023-04-24T12:20:08;9.80;;;4.50;;
66179;SDS011;52986;44.028;20.466;2023-04-24T12:22:46;9.65;;;4.50;;
66179;SDS011;52986;44.028;20.466;2023-04-24T12:25:14;10.93;;;4.90;;
66179;SDS011;52986;44.028;20.466;2023-04-24T12:27:40;10.80;;;5.07;;
66179;SDS011;52986;44.028;20.466;2023-04-24T12:30:10;11.30;;;5.47;;
66179;SDS011;52986;44.028;20.466;2023-04-24T12:32:41;9.95;;;4.50;;
66179;SDS011;52986;44.028;20.466;2023-04-24T12:35:08;10.50;;;4.30;;
66179;SDS011;52986;44.028;20.466;2023-04-24T12:37:33;9.25;;;4.10;;
66179;SDS011;52986;44.028;20.466;2023-04-24T12:40:02;9.48;;;3.90;;
66179;SDS011;52986;44.028;20.466;2023-04-24T12:42:29;9.65;;;4.20;;
66179;SDS011;52986;44.028;20.466;2023-04-24T12:44:59;9.25;;;4.35;;
66179;SDS011;52986;44.028;20.466;2023-04-24T12:47:29;10.32;;;4.30;;
66179;SDS011;52986;44.028;20.466;2023-04-24T12:49:55;9.05;;;3.85;;
66179;SDS011;52986;44.028;20.466;2023-04-24T12:52:24;10.18;;;4.15;;
66179;SDS011;52986;44.028;20.466;2023-04-24T12:54:52;9.75;;;4.68;;
66179;SDS011;52986;44.028;20.466;2023-04-24T12:57:18;9.68;;;4.20;;
66179;SDS011;52986;44.028;20.466;2023-04-24T12:59:44;8.57;;;4.05;;
66179;SDS011;52986;44.028;20.466;2023-04-24T13:02:09;9.40;;;4.15;;
66179;SDS011;52986;44.028;20.466;2023-04-24T13:04:35;9.38;;;4.43;;
66179;SDS011;52986;44.028;20.466;2023-04-24T13:07:01;9.30;;;4.18;;
66179;SDS011;52986;44.028;20.466;2023-04-24T13:09:27;8.30;;;3.65;;
66179;SDS011;52986;44.028;20.466;2023-04-24T13:11:52;9.45;;;4.18;;
66179;SDS011;52986;44.028;20.466;2023-04-24T13:14:17;9.32;;;4.00;;
66179;SDS011;52986;44.028;20.466;2023-04-24T13:16:43;10.10;;;4.47;;
66179;SDS011;52986;44.028;20.466;2023-04-24T13:19:08;10.88;;;4.80;;
66179;SDS011;52986;44.028;20.466;2023-04-24T13:21:34;9.18;;;4.40;;
66179;SDS011;52986;44.028;20.466;2023-04-24T13:23:59;9.30;;;4.82;;
66179;SDS011;52986;44.028;20.466;2023-04-24T13:26:25;9.52;;;5.00;;
66179;SDS011;52986;44.028;20.466;2023-04-24T13:28:50;9.65;;;4.63;;
66179;SDS011;52986;44.028;20.466;2023-04-24T13:31:16;9.88;;;4.55;;
66179;SDS011;52986;44.028;20.466;2023-04-24T13:33:41;9.05;;;4.38;;
66179;SDS011;52986;44.028;20.466;2023-04-24T13:36:07;10.95;;;5.00;;
66179;SDS011;52986;44.028;20.466;2023-04-24T13:38:33;10.25;;;4.60;;
66179;SDS011;52986;44.028;20.466;2023-04-24T13:40:59;10.63;;;4.50;;
66179;SDS011;52986;44.028;20.466;2023-04-24T13:43:24;9.25;;;4.72;;
66179;SDS011;52986;44.028;20.466;2023-04-24T13:45:50;9.95;;;4.53;;
66179;SDS011;52986;44.028;20.466;2023-04-24T13:48:15;9.77;;;4.60;;
66179;SDS011;52986;44.028;20.466;2023-04-24T13:50:41;12.35;;;5.50;;
66179;SDS011;52986;44.028;20.466;2023-04-24T13:53:07;11.73;;;5.00;;
66179;SDS011;52986;44.028;20.466;2023-04-24T13:55:32;10.73;;;4.50;;
66179;SDS011;52986;44.028;20.466;2023-04-24T13:57:58;12.53;;;5.30;;
66179;SDS011;52986;44.028;20.466;2023-04-24T14:00:23;11.73;;;5.95;;
66179;SDS011;52986;44.028;20.466;2023-04-24T14:02:49;10.05;;;4.55;;
66179;SDS011;52986;44.028;20.466;2023-04-24T14:05:15;11.05;;;5.45;;
66179;SDS011;52986;44.028;20.466;2023-04-24T14:07:41;13.32;;;5.60;;
66179;SDS011;52986;44.028;20.466;2023-04-24T14:10:09;14.93;;;6.20;;
66179;SDS011;52986;44.028;20.466;2023-04-24T14:12:35;13.85;;;5.95;;
66179;SDS011;52986;44.028;20.466;2023-04-24T14:15:00;16.00;;;6.13;;
66179;SDS011;52986;44.028;20.466;2023-04-24T14:17:26;12.35;;;5.93;;
66179;SDS011;52986;44.028;20.466;2023-04-24T14:19:52;16.30;;;5.60;;
66179;SDS011;52986;44.028;20.466;2023-04-24T14:22:21;13.80;;;5.80;;
66179;SDS011;52986;44.028;20.466;2023-04-24T14:24:46;13.05;;;6.43;;
66179;SDS011;52986;44.028;20.466;2023-04-24T14:27:11;13.20;;;5.90;;
66179;SDS011;52986;44.028;20.466;2023-04-24T14:29:37;16.38;;;6.03;;
66179;SDS011;52986;44.028;20.466;2023-04-24T14:32:02;16.20;;;7.90;;
66179;SDS011;52986;44.028;20.466;2023-04-24T14:34:27;20.10;;;7.47;;
66179;SDS011;52986;44.028;20.466;2023-04-24T14:36:53;14.13;;;6.20;;